sensor_id;sensor_type;location;lat;lon;timestamp;temperature;humidity
26907;DHT22;14472;56.880;16.658;2023-05-13T00:01:43;9.60;1.00
26907;DHT22;14472;56.880;16.658;2023-05-13T00:04:08;9.60;1.00
26907;DHT22;14472;56.880;16.658;2023-05-13T00:06:34;9.60;1.00
26907;DHT22;14472;56.880;16.658;2023-05-13T00:09:00;9.50;1.00
26907;DHT22;14472;56.880;16.658;2023-05-13T00:11:26;9.50;1.00
26907;DHT22;14472;56.880;16.658;2023-05-13T00:13:55;9.40;1.00
26907;DHT22;14472;56.880;16.658;2023-05-13T00:16:21;9.40;1.00
26907;DHT22;14472;56.880;16.658;2023-05-13T00:18:49;9.40;1.00
26907;DHT22;14472;56.880;16.658;2023-05-13T00:21:16;9.30;1.00
26907;DHT22;14472;56.880;16.658;2023-05-13T00:23:41;9.30;1.00
26907;DHT22;14472;56.880;16.658;2023-05-13T00:26:07;9.30;1.00
26907;DHT22;14472;56.880;16.658;2023-05-13T00:28:33;9.30;1.00
26907;DHT22;14472;56.880;16.658;2023-05-13T00:30:58;9.30;1.00
26907;DHT22;14472;56.880;16.658;2023-05-13T00:33:24;9.20;1.00
26907;DHT22;14472;56.880;16.658;2023-05-13T00:35:50;9.20;1.00
26907;DHT22;14472;56.880;16.658;2023-05-13T00:38:16;9.20;1.00
26907;DHT22;14472;56.880;16.658;2023-05-13T00:40:42;9.20;1.00
26907;DHT22;14472;56.880;16.658;2023-05-13T00:43:09;9.10;1.00
26907;DHT22;14472;56.880;16.658;2023-05-13T00:45:38;9.10;1.00
26907;DHT22;14472;56.880;16.658;2023-05-13T00:48:05;9.10;1.00
26907;DHT22;14472;56.880;16.658;2023-05-13T00:50:32;9.10;1.00
26907;DHT22;14472;56.880;16.658;2023-05-13T00:52:58;9.10;1.00
26907;DHT22;14472;56.880;16.658;2023-05-13T00:55:25;9.00;1.00
26907;DHT22;14472;56.880;16.658;2023-05-13T00:57:51;9.00;1.00
26907;DHT22;14472;56.880;16.658;2023-05-13T01:00:17;9.00;1.00
26907;DHT22;14472;56.880;16.658;2023-05-13T01:11:04;8.90;1.00
26907;DHT22;14472;56.880;16.658;2023-05-13T01:13:35;8.90;1.00
26907;DHT22;14472;56.880;16.658;2023-05-13T01:16:57;8.90;1.00
26907;DHT22;14472;56.880;16.658;2023-05-13T01:19:34;8.90;1.00
26907;DHT22;14472;56.880;16.658;2023-05-13T01:21:55;8.90;1.00
26907;DHT22;14472;56.880;16.658;2023-05-13T01:24:21;8.80;1.00
26907;DHT22;14472;56.880;16.658;2023-05-13T01:26:47;8.70;1.00
26907;DHT22;14472;56.880;16.658;2023-05-13T01:29:14;8.80;1.00
26907;DHT22;14472;56.880;16.658;2023-05-13T01:31:40;8.80;1.00
26907;DHT22;14472;56.880;16.658;2023-05-13T01:34:07;8.80;1.00
26907;DHT22;14472;56.880;16.658;2023-05-13T01:36:36;8.80;1.00
26907;DHT22;14472;56.880;16.658;2023-05-13T01:39:03;8.80;1.00
26907;DHT22;14472;56.880;16.658;2023-05-13T01:41:29;8.80;1.00
26907;DHT22;14472;56.880;16.658;2023-05-13T01:43:55;8.80;1.00
26907;DHT22;14472;56.880;16.658;2023-05-13T01:46:21;8.80;1.00
26907;DHT22;14472;56.880;16.658;2023-05-13T01:48:47;8.70;1.00
26907;DHT22;14472;56.880;16.658;2023-05-13T01:51:12;8.70;1.00
26907;DHT22;14472;56.880;16.658;2023-05-13T01:53:38;8.60;1.00
26907;DHT22;14472;56.880;16.658;2023-05-13T01:56:07;8.60;1.00
26907;DHT22;14472;56.880;16.658;2023-05-13T01:58:33;8.60;1.00
26907;DHT22;14472;56.880;16.658;2023-05-13T02:00:59;8.60;1.00
26907;DHT22;14472;56.880;16.658;2023-05-13T02:03:25;8.60;1.00
26907;DHT22;14472;56.880;16.658;2023-05-13T02:05:51;8.60;1.00
26907;DHT22;14472;56.880;16.658;2023-05-13T02:08:16;8.60;1.00
26907;DHT22;14472;56.880;16.658;2023-05-13T02:10:42;8.60;1.00
26907;DHT22;14472;56.880;16.658;2023-05-13T02:13:08;8.50;1.00
26907;DHT22;14472;56.880;16.658;2023-05-13T02:15:34;8.50;1.00
26907;DHT22;14472;56.880;16.658;2023-05-13T02:18:00;8.50;1.00
26907;DHT22;14472;56.880;16.658;2023-05-13T02:20:25;8.50;1.00
26907;DHT22;14472;56.880;16.658;2023-05-13T02:22:51;8.40;1.00
26907;DHT22;14472;56.880;16.658;2023-05-13T02:25:17;8.50;1.00
26907;DHT22;14472;56.880;16.658;2023-05-13T02:27:43;8.50;1.00
26907;DHT22;14472;56.880;16.658;2023-05-13T02:30:09;8.50;1.00
26907;DHT22;14472;56.880;16.658;2023-05-13T02:32:34;8.50;1.00
26907;DHT22;14472;56.880;16.658;2023-05-13T02:35:00;8.50;1.00
26907;DHT22;14472;56.880;16.658;2023-05-13T02:37:26;8.50;1.00
26907;DHT22;14472;56.880;16.658;2023-05-13T02:39:52;8.50;1.00
26907;DHT22;14472;56.880;16.658;2023-05-13T02:42:17;8.50;1.00
26907;DHT22;14472;56.880;16.658;2023-05-13T02:44:43;8.50;1.00
26907;DHT22;14472;56.880;16.658;2023-05-13T02:47:09;8.40;1.00
26907;DHT22;14472;56.880;16.658;2023-05-13T02:49:34;8.40;1.00
26907;DHT22;14472;56.880;16.658;2023-05-13T02:52:00;8.30;1.00
26907;DHT22;14472;56.880;16.658;2023-05-13T02:54:26;8.30;1.00
26907;DHT22;14472;56.880;16.658;2023-05-13T02:56:52;8.30;1.00
26907;DHT22;14472;56.880;16.658;2023-05-13T02:59:17;8.30;1.00
26907;DHT22;14472;56.880;16.658;2023-05-13T03:01:43;8.30;1.00
26907;DHT22;14472;56.880;16.658;2023-05-13T03:04:09;8.40;1.00
26907;DHT22;14472;56.880;16.658;2023-05-13T03:06:34;8.40;1.00
26907;DHT22;14472;56.880;16.658;2023-05-13T03:09:00;8.40;1.00
26907;DHT22;14472;56.880;16.658;2023-05-13T03:11:26;8.40;1.00
26907;DHT22;14472;56.880;16.658;2023-05-13T03:13:52;8.30;1.00
26907;DHT22;14472;56.880;16.658;2023-05-13T03:16:18;8.30;1.00
26907;DHT22;14472;56.880;16.658;2023-05-13T03:18:43;8.30;1.00
26907;DHT22;14472;56.880;16.658;2023-05-13T03:21:09;8.30;1.00
26907;DHT22;14472;56.880;16.658;2023-05-13T03:23:35;8.40;1.00
26907;DHT22;14472;56.880;16.658;2023-05-13T03:26:02;8.40;1.00
26907;DHT22;14472;56.880;16.658;2023-05-13T03:28:27;8.50;1.00
26907;DHT22;14472;56.880;16.658;2023-05-13T03:30:53;8.50;1.00
26907;DHT22;14472;56.880;16.658;2023-05-13T03:33:19;8.50;1.00
26907;DHT22;14472;56.880;16.658;2023-05-13T03:35:45;8.60;1.00
26907;DHT22;14472;56.880;16.658;2023-05-13T03:38:12;8.70;1.00
26907;DHT22;14472;56.880;16.658;2023-05-13T03:40:38;8.70;1.00
26907;DHT22;14472;56.880;16.658;2023-05-13T03:43:04;8.80;1.00
26907;DHT22;14472;56.880;16.658;2023-05-13T03:45:29;8.80;1.00
26907;DHT22;14472;56.880;16.658;2023-05-13T03:47:55;8.80;1.00
26907;DHT22;14472;56.880;16.658;2023-05-13T03:50:22;8.90;1.00
26907;DHT22;14472;56.880;16.658;2023-05-13T03:52:47;9.00;1.00
26907;DHT22;14472;56.880;16.658;2023-05-13T03:55:13;9.10;1.00
26907;DHT22;14472;56.880;16.658;2023-05-13T03:57:41;9.10;1.00
26907;DHT22;14472;56.880;16.658;2023-05-13T04:00:07;9.20;1.00
26907;DHT22;14472;56.880;16.658;2023-05-13T04:02:34;9.30;1.00
26907;DHT22;14472;56.880;16.658;2023-05-13T04:05:00;9.40;1.00
26907;DHT22;14472;56.880;16.658;2023-05-13T04:07:25;9.50;1.00
26907;DHT22;14472;56.880;16.658;2023-05-13T04:09:51;9.60;1.00
26907;DHT22;14472;56.880;16.658;2023-05-13T04:12:17;9.70;1.00
26907;DHT22;14472;56.880;16.658;2023-05-13T04:14:43;9.80;1.00
26907;DHT22;14472;56.880;16.658;2023-05-13T04:17:08;9.90;1.00
26907;DHT22;14472;56.880;16.658;2023-05-13T04:19:34;10.00;1.00
26907;DHT22;14472;56.880;16.658;2023-05-13T04:22:00;10.10;1.00
26907;DHT22;14472;56.880;16.658;2023-05-13T04:24:26;10.20;1.00
26907;DHT22;14472;56.880;16.658;2023-05-13T04:26:51;10.20;1.00
26907;DHT22;14472;56.880;16.658;2023-05-13T04:29:17;10.30;1.00
26907;DHT22;14472;56.880;16.658;2023-05-13T04:31:43;10.40;1.00
26907;DHT22;14472;56.880;16.658;2023-05-13T04:34:10;10.60;1.00
26907;DHT22;14472;56.880;16.658;2023-05-13T04:36:35;10.60;1.00
26907;DHT22;14472;56.880;16.658;2023-05-13T04:39:01;10.70;1.00
26907;DHT22;14472;56.880;16.658;2023-05-13T04:41:27;10.80;1.00
26907;DHT22;14472;56.880;16.658;2023-05-13T04:43:53;10.90;1.00
26907;DHT22;14472;56.880;16.658;2023-05-13T04:46:19;11.00;1.00
26907;DHT22;14472;56.880;16.658;2023-05-13T04:48:45;11.10;1.00
26907;DHT22;14472;56.880;16.658;2023-05-13T04:51:14;11.10;1.00
26907;DHT22;14472;56.880;16.658;2023-05-13T04:53:40;11.30;1.00
26907;DHT22;14472;56.880;16.658;2023-05-13T04:56:07;11.40;1.00
26907;DHT22;14472;56.880;16.658;2023-05-13T04:58:32;11.40;1.00
26907;DHT22;14472;56.880;16.658;2023-05-13T05:00:58;11.50;1.00
26907;DHT22;14472;56.880;16.658;2023-05-13T05:03:24;11.60;1.00
26907;DHT22;14472;56.880;16.658;2023-05-13T05:05:49;11.70;1.00
26907;DHT22;14472;56.880;16.658;2023-05-13T05:08:15;11.80;1.00
26907;DHT22;14472;56.880;16.658;2023-05-13T05:10:41;11.80;1.00
26907;DHT22;14472;56.880;16.658;2023-05-13T05:13:08;12.00;1.00
26907;DHT22;14472;56.880;16.658;2023-05-13T05:15:34;12.10;1.00
26907;DHT22;14472;56.880;16.658;2023-05-13T05:18:03;12.10;1.00
26907;DHT22;14472;56.880;16.658;2023-05-13T05:20:30;12.20;1.00
26907;DHT22;14472;56.880;16.658;2023-05-13T05:22:56;12.30;1.00
26907;DHT22;14472;56.880;16.658;2023-05-13T05:25:22;12.40;1.00
26907;DHT22;14472;56.880;16.658;2023-05-13T05:27:49;12.50;1.00
26907;DHT22;14472;56.880;16.658;2023-05-13T05:30:15;12.60;1.00
26907;DHT22;14472;56.880;16.658;2023-05-13T05:32:40;12.70;1.00
26907;DHT22;14472;56.880;16.658;2023-05-13T05:35:07;12.80;1.00
26907;DHT22;14472;56.880;16.658;2023-05-13T05:37:33;13.00;1.00
26907;DHT22;14472;56.880;16.658;2023-05-13T05:39:59;13.00;1.00
26907;DHT22;14472;56.880;16.658;2023-05-13T05:42:24;13.20;1.00
26907;DHT22;14472;56.880;16.658;2023-05-13T05:44:50;13.30;1.00
26907;DHT22;14472;56.880;16.658;2023-05-13T05:47:16;13.40;1.00
26907;DHT22;14472;56.880;16.658;2023-05-13T05:49:41;13.40;1.00
26907;DHT22;14472;56.880;16.658;2023-05-13T05:52:07;13.50;1.00
26907;DHT22;14472;56.880;16.658;2023-05-13T05:54:35;13.50;1.00
26907;DHT22;14472;56.880;16.658;2023-05-13T05:57:01;13.60;1.00
26907;DHT22;14472;56.880;16.658;2023-05-13T05:59:26;13.70;1.00
26907;DHT22;14472;56.880;16.658;2023-05-13T06:01:52;13.80;1.00
26907;DHT22;14472;56.880;16.658;2023-05-13T06:04:18;13.80;1.00
26907;DHT22;14472;56.880;16.658;2023-05-13T06:06:44;13.90;1.00
26907;DHT22;14472;56.880;16.658;2023-05-13T06:09:09;14.00;1.00
26907;DHT22;14472;56.880;16.658;2023-05-13T06:11:35;14.10;1.00
26907;DHT22;14472;56.880;16.658;2023-05-13T06:14:01;14.20;1.00
26907;DHT22;14472;56.880;16.658;2023-05-13T06:16:27;14.20;1.00
26907;DHT22;14472;56.880;16.658;2023-05-13T06:18:53;14.30;1.00
26907;DHT22;14472;56.880;16.658;2023-05-13T06:21:18;14.40;1.00
26907;DHT22;14472;56.880;16.658;2023-05-13T06:23:44;14.40;1.00
26907;DHT22;14472;56.880;16.658;2023-05-13T06:26:10;14.50;1.00
26907;DHT22;14472;56.880;16.658;2023-05-13T06:28:35;14.60;1.00
26907;DHT22;14472;56.880;16.658;2023-05-13T06:31:01;14.60;1.00
26907;DHT22;14472;56.880;16.658;2023-05-13T06:33:27;14.70;1.00
26907;DHT22;14472;56.880;16.658;2023-05-13T06:35:53;14.80;1.00
26907;DHT22;14472;56.880;16.658;2023-05-13T06:38:18;14.90;1.00
26907;DHT22;14472;56.880;16.658;2023-05-13T06:40:44;15.00;1.00
26907;DHT22;14472;56.880;16.658;2023-05-13T06:43:11;15.00;1.00
26907;DHT22;14472;56.880;16.658;2023-05-13T06:45:38;15.10;1.00
26907;DHT22;14472;56.880;16.658;2023-05-13T06:48:04;15.20;1.00
26907;DHT22;14472;56.880;16.658;2023-05-13T06:50:30;15.20;1.00
26907;DHT22;14472;56.880;16.658;2023-05-13T06:52:56;15.40;1.00
26907;DHT22;14472;56.880;16.658;2023-05-13T06:55:23;15.50;1.00
26907;DHT22;14472;56.880;16.658;2023-05-13T06:57:48;15.50;1.00
26907;DHT22;14472;56.880;16.658;2023-05-13T07:00:14;15.60;1.00
26907;DHT22;14472;56.880;16.658;2023-05-13T07:02:41;15.70;1.00
26907;DHT22;14472;56.880;16.658;2023-05-13T07:05:07;15.70;1.00
26907;DHT22;14472;56.880;16.658;2023-05-13T07:07:34;15.70;1.00
26907;DHT22;14472;56.880;16.658;2023-05-13T07:10:00;15.80;1.00
26907;DHT22;14472;56.880;16.658;2023-05-13T07:12:25;15.90;1.00
26907;DHT22;14472;56.880;16.658;2023-05-13T07:14:51;15.90;1.00
26907;DHT22;14472;56.880;16.658;2023-05-13T07:17:17;15.90;1.00
26907;DHT22;14472;56.880;16.658;2023-05-13T07:19:46;15.90;1.00
26907;DHT22;14472;56.880;16.658;2023-05-13T07:22:12;16.00;1.00
26907;DHT22;14472;56.880;16.658;2023-05-13T07:24:37;16.10;1.00
26907;DHT22;14472;56.880;16.658;2023-05-13T07:27:03;16.10;1.00
26907;DHT22;14472;56.880;16.658;2023-05-13T07:29:32;16.20;1.00
26907;DHT22;14472;56.880;16.658;2023-05-13T07:32:03;16.30;1.00
26907;DHT22;14472;56.880;16.658;2023-05-13T07:34:28;16.30;1.00
26907;DHT22;14472;56.880;16.658;2023-05-13T07:36:54;16.20;1.00
26907;DHT22;14472;56.880;16.658;2023-05-13T07:39:20;16.30;1.00
26907;DHT22;14472;56.880;16.658;2023-05-13T07:41:46;16.30;1.00
26907;DHT22;14472;56.880;16.658;2023-05-13T07:44:11;16.40;1.00
26907;DHT22;14472;56.880;16.658;2023-05-13T07:46:37;16.40;1.00
26907;DHT22;14472;56.880;16.658;2023-05-13T07:49:03;16.40;1.00
26907;DHT22;14472;56.880;16.658;2023-05-13T07:51:31;16.50;1.00
26907;DHT22;14472;56.880;16.658;2023-05-13T07:53:57;16.50;1.00
26907;DHT22;14472;56.880;16.658;2023-05-13T07:56:23;16.50;1.00
26907;DHT22;14472;56.880;16.658;2023-05-13T07:58:48;16.60;1.00
26907;DHT22;14472;56.880;16.658;2023-05-13T08:01:15;16.70;1.00
26907;DHT22;14472;56.880;16.658;2023-05-13T08:03:40;16.70;1.00
26907;DHT22;14472;56.880;16.658;2023-05-13T08:06:06;16.80;1.00
26907;DHT22;14472;56.880;16.658;2023-05-13T08:08:32;16.90;1.00
26907;DHT22;14472;56.880;16.658;2023-05-13T08:10:59;16.90;1.00
26907;DHT22;14472;56.880;16.658;2023-05-13T08:13:25;16.90;1.00
26907;DHT22;14472;56.880;16.658;2023-05-13T08:15:51;16.90;1.00
26907;DHT22;14472;56.880;16.658;2023-05-13T08:18:17;16.90;1.00
26907;DHT22;14472;56.880;16.658;2023-05-13T08:20:44;16.90;1.00
26907;DHT22;14472;56.880;16.658;2023-05-13T08:23:10;17.00;1.00
26907;DHT22;14472;56.880;16.658;2023-05-13T08:25:36;17.00;1.00
26907;DHT22;14472;56.880;16.658;2023-05-13T08:28:03;16.90;1.00
26907;DHT22;14472;56.880;16.658;2023-05-13T08:30:28;17.00;1.00
26907;DHT22;14472;56.880;16.658;2023-05-13T08:32:55;17.00;1.00
26907;DHT22;14472;56.880;16.658;2023-05-13T08:35:21;17.00;1.00
26907;DHT22;14472;56.880;16.658;2023-05-13T08:37:47;17.00;1.00
26907;DHT22;14472;56.880;16.658;2023-05-13T08:40:13;17.00;1.00
26907;DHT22;14472;56.880;16.658;2023-05-13T08:42:41;17.10;1.00
26907;DHT22;14472;56.880;16.658;2023-05-13T08:45:10;17.20;1.00
26907;DHT22;14472;56.880;16.658;2023-05-13T08:47:50;17.20;1.00
26907;DHT22;14472;56.880;16.658;2023-05-13T08:50:18;17.20;1.00
26907;DHT22;14472;56.880;16.658;2023-05-13T08:52:46;17.20;1.00
26907;DHT22;14472;56.880;16.658;2023-05-13T08:55:13;17.30;1.00
26907;DHT22;14472;56.880;16.658;2023-05-13T08:57:40;17.30;1.00
26907;DHT22;14472;56.880;16.658;2023-05-13T09:00:06;17.40;1.00
26907;DHT22;14472;56.880;16.658;2023-05-13T09:02:32;17.50;1.00
26907;DHT22;14472;56.880;16.658;2023-05-13T09:05:03;17.50;1.00
26907;DHT22;14472;56.880;16.658;2023-05-13T09:07:30;17.50;1.00
26907;DHT22;14472;56.880;16.658;2023-05-13T09:09:56;17.60;1.00
26907;DHT22;14472;56.880;16.658;2023-05-13T09:12:41;17.50;1.00
26907;DHT22;14472;56.880;16.658;2023-05-13T09:15:09;17.60;1.00
26907;DHT22;14472;56.880;16.658;2023-05-13T09:17:43;17.60;1.00
26907;DHT22;14472;56.880;16.658;2023-05-13T09:20:11;17.60;1.00
26907;DHT22;14472;56.880;16.658;2023-05-13T09:23:09;17.60;1.00
26907;DHT22;14472;56.880;16.658;2023-05-13T09:25:36;17.60;1.00
26907;DHT22;14472;56.880;16.658;2023-05-13T09:28:04;17.70;1.00
26907;DHT22;14472;56.880;16.658;2023-05-13T09:30:38;17.70;1.00
26907;DHT22;14472;56.880;16.658;2023-05-13T09:33:28;17.70;1.00
26907;DHT22;14472;56.880;16.658;2023-05-13T09:35:54;17.80;1.00
26907;DHT22;14472;56.880;16.658;2023-05-13T09:38:27;17.80;1.00
26907;DHT22;14472;56.880;16.658;2023-05-13T09:40:55;17.90;1.00
26907;DHT22;14472;56.880;16.658;2023-05-13T09:43:23;18.00;1.00
26907;DHT22;14472;56.880;16.658;2023-05-13T09:45:56;18.10;1.00
26907;DHT22;14472;56.880;16.658;2023-05-13T09:48:28;18.10;1.00
26907;DHT22;14472;56.880;16.658;2023-05-13T09:50:55;18.20;1.00
26907;DHT22;14472;56.880;16.658;2023-05-13T09:53:23;18.20;1.00
26907;DHT22;14472;56.880;16.658;2023-05-13T09:55:51;18.20;1.00
26907;DHT22;14472;56.880;16.658;2023-05-13T09:58:17;18.10;1.00
26907;DHT22;14472;56.880;16.658;2023-05-13T10:00:45;18.20;1.00
26907;DHT22;14472;56.880;16.658;2023-05-13T10:03:12;18.20;1.00
26907;DHT22;14472;56.880;16.658;2023-05-13T10:05:39;18.30;1.00
26907;DHT22;14472;56.880;16.658;2023-05-13T10:08:08;18.40;1.00
26907;DHT22;14472;56.880;16.658;2023-05-13T10:10:35;18.40;1.00
26907;DHT22;14472;56.880;16.658;2023-05-13T10:13:07;18.50;1.00
26907;DHT22;14472;56.880;16.658;2023-05-13T10:15:35;18.50;1.00
26907;DHT22;14472;56.880;16.658;2023-05-13T10:18:08;18.70;1.00
26907;DHT22;14472;56.880;16.658;2023-05-13T10:20:34;18.90;1.00
26907;DHT22;14472;56.880;16.658;2023-05-13T10:23:01;19.00;1.00
26907;DHT22;14472;56.880;16.658;2023-05-13T10:25:27;19.10;1.00
26907;DHT22;14472;56.880;16.658;2023-05-13T10:27:55;19.20;1.00
26907;DHT22;14472;56.880;16.658;2023-05-13T10:33:51;19.40;1.00
26907;DHT22;14472;56.880;16.658;2023-05-13T10:36:38;19.40;1.00
26907;DHT22;14472;56.880;16.658;2023-05-13T10:39:21;19.60;1.00
26907;DHT22;14472;56.880;16.658;2023-05-13T10:44:22;20.00;1.00
26907;DHT22;14472;56.880;16.658;2023-05-13T10:46:50;20.10;1.00
26907;DHT22;14472;56.880;16.658;2023-05-13T10:49:21;20.30;1.00
26907;DHT22;14472;56.880;16.658;2023-05-13T10:51:49;20.60;1.00
26907;DHT22;14472;56.880;16.658;2023-05-13T10:54:22;20.90;1.00
26907;DHT22;14472;56.880;16.658;2023-05-13T10:56:56;21.10;1.00
26907;DHT22;14472;56.880;16.658;2023-05-13T10:59:22;21.30;1.00
26907;DHT22;14472;56.880;16.658;2023-05-13T11:01:51;21.40;1.00
26907;DHT22;14472;56.880;16.658;2023-05-13T11:04:19;21.50;1.00
26907;DHT22;14472;56.880;16.658;2023-05-13T11:06:46;21.40;1.00
26907;DHT22;14472;56.880;16.658;2023-05-13T11:11:52;21.80;1.00
26907;DHT22;14472;56.880;16.658;2023-05-13T11:14:26;21.90;1.00
26907;DHT22;14472;56.880;16.658;2023-05-13T11:19:28;21.90;1.00
26907;DHT22;14472;56.880;16.658;2023-05-13T11:21:57;22.00;1.00
26907;DHT22;14472;56.880;16.658;2023-05-13T11:24:28;22.10;1.00
26907;DHT22;14472;56.880;16.658;2023-05-13T11:26:56;22.10;1.00
26907;DHT22;14472;56.880;16.658;2023-05-13T11:29:35;22.10;1.00
26907;DHT22;14472;56.880;16.658;2023-05-13T11:32:04;22.20;1.00
26907;DHT22;14472;56.880;16.658;2023-05-13T11:34:32;22.20;1.00
26907;DHT22;14472;56.880;16.658;2023-05-13T11:37:09;22.30;1.00
26907;DHT22;14472;56.880;16.658;2023-05-13T11:39:37;22.30;1.00
26907;DHT22;14472;56.880;16.658;2023-05-13T11:42:07;22.40;1.00
26907;DHT22;14472;56.880;16.658;2023-05-13T11:44:33;22.30;1.00
26907;DHT22;14472;56.880;16.658;2023-05-13T11:47:01;22.40;1.00
26907;DHT22;14472;56.880;16.658;2023-05-13T11:49:41;22.50;1.00
26907;DHT22;14472;56.880;16.658;2023-05-13T11:52:12;22.50;1.00
26907;DHT22;14472;56.880;16.658;2023-05-13T11:54:44;22.50;1.00
26907;DHT22;14472;56.880;16.658;2023-05-13T11:57:27;22.50;1.00
26907;DHT22;14472;56.880;16.658;2023-05-13T12:00:01;22.50;1.00
26907;DHT22;14472;56.880;16.658;2023-05-13T12:02:29;22.50;1.00
26907;DHT22;14472;56.880;16.658;2023-05-13T12:04:59;22.60;1.00
26907;DHT22;14472;56.880;16.658;2023-05-13T12:07:26;22.60;1.00
26907;DHT22;14472;56.880;16.658;2023-05-13T12:09:55;22.70;1.00
26907;DHT22;14472;56.880;16.658;2023-05-13T12:12:23;22.70;1.00
26907;DHT22;14472;56.880;16.658;2023-05-13T12:14:49;22.70;1.00
26907;DHT22;14472;56.880;16.658;2023-05-13T12:17:19;22.70;1.00
26907;DHT22;14472;56.880;16.658;2023-05-13T12:20:23;22.80;1.00
26907;DHT22;14472;56.880;16.658;2023-05-13T12:22:51;22.70;1.00
26907;DHT22;14472;56.880;16.658;2023-05-13T12:25:37;22.70;1.00
26907;DHT22;14472;56.880;16.658;2023-05-13T12:28:21;22.80;1.00
26907;DHT22;14472;56.880;16.658;2023-05-13T12:31:06;22.80;1.00
26907;DHT22;14472;56.880;16.658;2023-05-13T12:33:42;22.80;1.00
26907;DHT22;14472;56.880;16.658;2023-05-13T12:36:23;22.80;1.00
26907;DHT22;14472;56.880;16.658;2023-05-13T12:39:09;22.80;1.00
26907;DHT22;14472;56.880;16.658;2023-05-13T12:41:37;22.80;1.00
26907;DHT22;14472;56.880;16.658;2023-05-13T12:44:08;22.70;1.00
26907;DHT22;14472;56.880;16.658;2023-05-13T12:46:34;22.60;1.00
26907;DHT22;14472;56.880;16.658;2023-05-13T12:49:02;22.60;1.00
26907;DHT22;14472;56.880;16.658;2023-05-13T12:51:29;22.60;1.00
26907;DHT22;14472;56.880;16.658;2023-05-13T12:53:55;22.60;1.00
26907;DHT22;14472;56.880;16.658;2023-05-13T12:56:21;22.60;1.00
26907;DHT22;14472;56.880;16.658;2023-05-13T12:58:48;22.60;1.00
26907;DHT22;14472;56.880;16.658;2023-05-13T13:01:16;22.60;1.00
26907;DHT22;14472;56.880;16.658;2023-05-13T13:03:42;22.50;1.00
26907;DHT22;14472;56.880;16.658;2023-05-13T13:06:08;22.50;1.00
26907;DHT22;14472;56.880;16.658;2023-05-13T13:08:35;22.50;1.00
26907;DHT22;14472;56.880;16.658;2023-05-13T13:11:02;22.50;1.00
26907;DHT22;14472;56.880;16.658;2023-05-13T13:13:29;22.50;1.00
26907;DHT22;14472;56.880;16.658;2023-05-13T13:15:55;22.50;1.00
26907;DHT22;14472;56.880;16.658;2023-05-13T13:18:21;22.50;1.00
26907;DHT22;14472;56.880;16.658;2023-05-13T13:20:49;22.50;1.00
26907;DHT22;14472;56.880;16.658;2023-05-13T13:23:16;22.60;1.00
26907;DHT22;14472;56.880;16.658;2023-05-13T13:25:42;22.60;1.00
26907;DHT22;14472;56.880;16.658;2023-05-13T13:28:08;22.50;1.00
26907;DHT22;14472;56.880;16.658;2023-05-13T13:30:34;22.50;1.00
26907;DHT22;14472;56.880;16.658;2023-05-13T13:33:00;22.50;1.00
26907;DHT22;14472;56.880;16.658;2023-05-13T13:35:25;22.50;1.00
26907;DHT22;14472;56.880;16.658;2023-05-13T13:37:51;22.40;1.00
26907;DHT22;14472;56.880;16.658;2023-05-13T13:40:19;22.50;1.00
26907;DHT22;14472;56.880;16.658;2023-05-13T13:42:44;22.50;1.00
26907;DHT22;14472;56.880;16.658;2023-05-13T13:45:11;22.50;1.00
26907;DHT22;14472;56.880;16.658;2023-05-13T13:47:37;22.50;1.00
26907;DHT22;14472;56.880;16.658;2023-05-13T13:50:04;22.40;1.00
26907;DHT22;14472;56.880;16.658;2023-05-13T13:52:30;22.40;1.00
26907;DHT22;14472;56.880;16.658;2023-05-13T13:54:56;22.40;1.00
26907;DHT22;14472;56.880;16.658;2023-05-13T13:57:22;22.30;1.00
26907;DHT22;14472;56.880;16.658;2023-05-13T13:59:48;22.40;1.00
26907;DHT22;14472;56.880;16.658;2023-05-13T14:02:13;22.40;1.00
26907;DHT22;14472;56.880;16.658;2023-05-13T14:04:39;22.50;1.00
26907;DHT22;14472;56.880;16.658;2023-05-13T14:07:05;22.50;1.00
26907;DHT22;14472;56.880;16.658;2023-05-13T14:09:31;22.40;1.00
26907;DHT22;14472;56.880;16.658;2023-05-13T14:11:57;22.40;1.00
26907;DHT22;14472;56.880;16.658;2023-05-13T14:14:23;22.50;1.00
26907;DHT22;14472;56.880;16.658;2023-05-13T14:16:51;22.50;1.00
26907;DHT22;14472;56.880;16.658;2023-05-13T14:19:17;22.40;1.00
26907;DHT22;14472;56.880;16.658;2023-05-13T14:21:45;22.40;1.00
26907;DHT22;14472;56.880;16.658;2023-05-13T14:24:10;22.40;1.00
26907;DHT22;14472;56.880;16.658;2023-05-13T14:26:37;22.50;1.00
26907;DHT22;14472;56.880;16.658;2023-05-13T14:29:03;22.50;1.00
26907;DHT22;14472;56.880;16.658;2023-05-13T14:31:28;22.50;1.00
26907;DHT22;14472;56.880;16.658;2023-05-13T14:33:54;22.50;1.00
26907;DHT22;14472;56.880;16.658;2023-05-13T14:36:20;22.50;1.00
26907;DHT22;14472;56.880;16.658;2023-05-13T14:38:47;22.50;1.00
26907;DHT22;14472;56.880;16.658;2023-05-13T14:41:13;22.40;1.00
26907;DHT22;14472;56.880;16.658;2023-05-13T14:43:47;22.40;1.00
26907;DHT22;14472;56.880;16.658;2023-05-13T14:46:13;22.40;1.00
26907;DHT22;14472;56.880;16.658;2023-05-13T14:48:39;22.40;1.00
26907;DHT22;14472;56.880;16.658;2023-05-13T14:51:07;22.30;1.00
26907;DHT22;14472;56.880;16.658;2023-05-13T14:53:35;22.30;1.00
26907;DHT22;14472;56.880;16.658;2023-05-13T14:56:01;22.20;1.00
26907;DHT22;14472;56.880;16.658;2023-05-13T14:58:27;22.10;1.00
26907;DHT22;14472;56.880;16.658;2023-05-13T15:00:53;22.10;1.00
26907;DHT22;14472;56.880;16.658;2023-05-13T15:03:19;22.10;1.00
26907;DHT22;14472;56.880;16.658;2023-05-13T15:05:45;22.10;1.00
26907;DHT22;14472;56.880;16.658;2023-05-13T15:08:11;22.00;1.00
26907;DHT22;14472;56.880;16.658;2023-05-13T15:10:37;22.00;1.00
26907;DHT22;14472;56.880;16.658;2023-05-13T15:13:03;22.10;1.00
26907;DHT22;14472;56.880;16.658;2023-05-13T15:15:29;22.00;1.00
26907;DHT22;14472;56.880;16.658;2023-05-13T15:17:55;22.00;1.00
26907;DHT22;14472;56.880;16.658;2023-05-13T15:20:20;22.00;1.00
26907;DHT22;14472;56.880;16.658;2023-05-13T15:22:46;22.00;1.00
26907;DHT22;14472;56.880;16.658;2023-05-13T15:25:12;22.00;1.00
26907;DHT22;14472;56.880;16.658;2023-05-13T15:27:38;21.90;1.00
26907;DHT22;14472;56.880;16.658;2023-05-13T15:30:04;22.00;1.00
26907;DHT22;14472;56.880;16.658;2023-05-13T15:32:30;21.90;1.00
26907;DHT22;14472;56.880;16.658;2023-05-13T15:34:55;21.90;1.00
26907;DHT22;14472;56.880;16.658;2023-05-13T15:37:21;21.90;1.00
26907;DHT22;14472;56.880;16.658;2023-05-13T15:39:47;21.90;1.00
26907;DHT22;14472;56.880;16.658;2023-05-13T15:42:13;21.90;1.00
26907;DHT22;14472;56.880;16.658;2023-05-13T15:44:39;21.80;1.00
26907;DHT22;14472;56.880;16.658;2023-05-13T15:47:04;21.80;1.00
26907;DHT22;14472;56.880;16.658;2023-05-13T15:49:31;21.80;1.00
26907;DHT22;14472;56.880;16.658;2023-05-13T15:51:58;21.70;1.00
26907;DHT22;14472;56.880;16.658;2023-05-13T15:54:24;21.80;1.00
26907;DHT22;14472;56.880;16.658;2023-05-13T15:56:50;21.70;1.00